Time;durP1;ratioP1;P1;durP2;ratioP2;P2;SDS_P1;SDS_P2;PMS_P1;PMS_P2;Temp;Humidity;BMP_temperature;BMP_pressure;BME280_temperature;BME280_humidity;BME280_pressure;Samples;Min_cycle;Max_cycle;Signal;HPM_P1;HPM_P2
2022/03/26 00:00:13;;;;;;;131.05;63.63;;;5.10;99.90;;;;;;5039715;28;20060;-85
2022/03/26 00:02:39;;;;;;;135.95;67.03;;;5.10;99.90;;;;;;5041361;28;20040;-85
2022/03/26 00:05:05;;;;;;;135.95;64.55;;;5.10;99.90;;;;;;5037157;28;20040;-85
2022/03/26 00:07:30;;;;;;;131.13;62.65;;;5.10;99.90;;;;;;5058303;28;20091;-86
2022/03/26 00:09:56;;;;;;;135.07;63.03;;;5.10;99.90;;;;;;5039015;28;20162;-86
2022/03/26 00:12:25;;;;;;;132.00;59.42;;;5.00;99.90;;;;;;5040503;28;20041;-86
2022/03/26 00:14:51;;;;;;;86.85;46.42;;;4.90;99.90;;;;;;5057357;28;20106;-87
2022/03/26 00:17:17;;;;;;;104.88;52.40;;;4.80;99.90;;;;;;5055463;28;20539;-86
2022/03/26 00:19:43;;;;;;;116.28;56.17;;;4.70;99.90;;;;;;5054599;28;20032;-86
2022/03/26 00:22:09;;;;;;;115.93;56.40;;;4.70;99.90;;;;;;5034759;28;20404;-86
2022/03/26 00:24:34;;;;;;;116.93;55.35;;;4.70;99.90;;;;;;5039405;28;20101;-86
2022/03/26 00:27:00;;;;;;;119.80;56.47;;;4.70;99.90;;;;;;5039735;28;20036;-85
2022/03/26 00:29:26;;;;;;;118.75;56.00;;;4.60;99.90;;;;;;5040247;28;20044;-86
2022/03/26 00:31:52;;;;;;;162.10;71.85;;;4.60;99.90;;;;;;5034372;28;20111;-86
2022/03/26 00:34:18;;;;;;;159.68;69.65;;;4.80;99.90;;;;;;5039391;28;20044;-86
2022/03/26 00:36:44;;;;;;;152.90;68.05;;;4.80;99.90;;;;;;5038931;28;20040;-86
2022/03/26 00:39:09;;;;;;;166.63;72.30;;;4.80;99.90;;;;;;5040717;28;20039;-84
2022/03/26 00:41:35;;;;;;;165.82;74.22;;;4.90;99.90;;;;;;5060499;28;20470;-86
2022/03/26 00:44:01;;;;;;;146.15;68.47;;;5.00;99.90;;;;;;5055106;28;20422;-86
2022/03/26 00:46:27;;;;;;;138.43;63.92;;;4.90;99.90;;;;;;5056902;28;20048;-85
2022/03/26 00:48:56;;;;;;;140.07;65.05;;;4.70;99.90;;;;;;5035887;28;20033;-86
2022/03/26 00:51:22;;;;;;;160.45;71.95;;;4.80;99.90;;;;;;5040257;28;20041;-86
2022/03/26 00:53:47;;;;;;;132.98;60.35;;;4.80;99.90;;;;;;5055449;28;20428;-85
2022/03/26 00:56:14;;;;;;;160.30;71.47;;;4.70;99.90;;;;;;5055576;28;20209;-86
2022/03/26 00:58:40;;;;;;;179.13;77.05;;;4.80;99.90;;;;;;5039945;28;20268;-86
2022/03/26 01:01:07;;;;;;;131.25;60.20;;;4.80;99.90;;;;;;5035419;28;20542;-85
2022/03/26 01:03:33;;;;;;;126.80;59.10;;;4.70;99.90;;;;;;5052069;28;20530;-86
2022/03/26 01:05:59;;;;;;;123.03;58.40;;;4.50;99.90;;;;;;5040954;28;20044;-85
2022/03/26 01:08:27;;;;;;;131.43;61.55;;;4.40;99.90;;;;;;5054846;28;20101;-85
2022/03/26 01:10:53;;;;;;;143.30;63.80;;;4.40;99.90;;;;;;5052781;28;20040;-85
2022/03/26 01:13:19;;;;;;;152.05;67.43;;;4.40;99.90;;;;;;5055711;28;20036;-86
2022/03/26 01:15:44;;;;;;;140.93;63.78;;;4.40;99.90;;;;;;5055304;28;20051;-87
2022/03/26 01:18:10;;;;;;;132.00;61.60;;;4.30;99.90;;;;;;5059568;28;20115;-86
2022/03/26 01:20:36;;;;;;;132.95;59.63;;;4.20;99.90;;;;;;5058694;28;20037;-86
2022/03/26 01:23:03;;;;;;;146.75;68.25;;;4.20;99.90;;;;;;5042108;28;20111;-86
2022/03/26 01:25:29;;;;;;;138.20;64.78;;;4.20;99.90;;;;;;5044830;28;20105;-86
2022/03/26 01:27:54;;;;;;;146.52;66.13;;;4.10;99.90;;;;;;5043492;28;20036;-86
2022/03/26 01:30:20;;;;;;;142.07;63.40;;;4.10;99.90;;;;;;5060480;28;20040;-85
2022/03/26 01:32:46;;;;;;;154.90;68.53;;;4.10;99.90;;;;;;5060035;28;20025;-87
2022/03/26 01:35:13;;;;;;;160.00;69.90;;;4.10;99.90;;;;;;5043312;28;20040;-86
2022/03/26 01:37:38;;;;;;;152.35;68.47;;;4.00;99.90;;;;;;5055847;28;20063;-85
2022/03/26 01:40:05;;;;;;;152.73;69.55;;;4.00;99.90;;;;;;5061832;28;20051;-86
2022/03/26 01:42:32;;;;;;;163.38;68.63;;;4.00;99.90;;;;;;5042790;28;20040;-86
2022/03/26 01:44:57;;;;;;;166.15;73.22;;;4.00;99.90;;;;;;5058048;28;20113;-85
2022/03/26 01:47:23;;;;;;;164.50;70.47;;;4.00;99.90;;;;;;5077832;28;20134;-86
2022/03/26 01:49:50;;;;;;;155.13;67.88;;;4.00;99.90;;;;;;5043647;28;20080;-86
2022/03/26 01:52:16;;;;;;;155.52;65.60;;;4.00;99.90;;;;;;5057482;28;20049;-87
2022/03/26 01:54:43;;;;;;;159.60;70.43;;;3.90;99.90;;;;;;5059389;28;20415;-86
2022/03/26 01:57:12;;;;;;;157.20;66.18;;;3.90;99.90;;;;;;5058682;28;20041;-86
2022/03/26 01:59:40;;;;;;;154.50;69.13;;;3.80;99.90;;;;;;5057842;28;20044;-86
2022/03/26 02:02:06;;;;;;;173.38;73.13;;;3.80;99.90;;;;;;5041006;28;20393;-85
2022/03/26 02:04:34;;;;;;;170.55;70.90;;;3.80;99.90;;;;;;5051477;28;20547;-85
2022/03/26 02:07:05;;;;;;;155.05;67.70;;;3.80;99.90;;;;;;5043992;28;20047;-86
2022/03/26 02:09:35;;;;;;;167.88;68.65;;;3.90;99.90;;;;;;5040319;28;20660;-86
2022/03/26 02:12:02;;;;;;;166.52;69.22;;;3.80;99.90;;;;;;5059868;28;20341;-86
2022/03/26 02:14:28;;;;;;;150.10;65.05;;;3.70;99.90;;;;;;5057913;28;20562;-86
2022/03/26 02:16:54;;;;;;;148.13;64.00;;;3.60;99.90;;;;;;5039556;28;20024;-86
2022/03/26 02:19:22;;;;;;;150.68;67.15;;;3.60;99.90;;;;;;5042704;28;20567;-86
2022/03/26 02:21:49;;;;;;;159.48;66.55;;;3.50;99.90;;;;;;5061115;28;20419;-86
2022/03/26 02:24:15;;;;;;;172.63;71.30;;;3.60;99.90;;;;;;5058835;28;20040;-87
2022/03/26 02:26:41;;;;;;;170.05;72.88;;;3.60;99.90;;;;;;5037756;28;20044;-86
2022/03/26 02:29:12;;;;;;;189.65;75.93;;;3.60;99.90;;;;;;5042205;28;20467;-86
2022/03/26 02:31:39;;;;;;;195.80;78.68;;;3.70;99.90;;;;;;5042928;28;20029;-86
2022/03/26 02:34:06;;;;;;;202.23;82.32;;;3.70;99.90;;;;;;5057893;28;20063;-85
2022/03/26 02:36:33;;;;;;;212.20;82.75;;;3.80;99.90;;;;;;5041536;28;20510;-87
2022/03/26 02:38:58;;;;;;;224.30;83.25;;;3.90;99.90;;;;;;5058305;28;20021;-86
2022/03/26 02:41:24;;;;;;;219.40;83.07;;;3.90;99.90;;;;;;5058762;28;20369;-87
2022/03/26 02:43:49;;;;;;;220.32;82.63;;;3.90;99.90;;;;;;5040149;28;20075;-86
2022/03/26 02:46:15;;;;;;;215.43;83.57;;;3.80;99.90;;;;;;5041844;28;20086;-86
2022/03/26 02:48:43;;;;;;;232.02;87.15;;;3.90;99.90;;;;;;5058653;28;20420;-86
2022/03/26 02:51:09;;;;;;;220.50;86.40;;;3.90;99.90;;;;;;5043987;28;20043;-86
2022/03/26 02:53:35;;;;;;;220.85;85.68;;;3.90;99.90;;;;;;5040148;28;20040;-86
2022/03/26 02:56:00;;;;;;;244.50;87.65;;;3.90;99.90;;;;;;5042380;28;20060;-86
2022/03/26 02:58:26;;;;;;;222.27;86.82;;;3.80;99.90;;;;;;5040412;28;20138;-85
2022/03/26 03:00:52;;;;;;;169.65;70.93;;;3.70;99.90;;;;;;5041710;28;20140;-86
2022/03/26 03:03:19;;;;;;;132.77;58.42;;;3.60;99.90;;;;;;5042116;28;20420;-86
2022/03/26 03:05:48;;;;;;;121.03;54.35;;;3.20;99.90;;;;;;5042409;28;20037;-86
2022/03/26 03:08:14;;;;;;;168.70;70.07;;;3.00;99.90;;;;;;5058011;28;20079;-86
2022/03/26 03:10:42;;;;;;;217.68;83.18;;;3.10;99.90;;;;;;5054775;28;20500;-87
2022/03/26 03:13:08;;;;;;;173.55;70.75;;;3.30;99.90;;;;;;5041363;28;20894;-86
2022/03/26 03:15:33;;;;;;;171.68;69.93;;;3.10;99.90;;;;;;5057829;28;20032;-86
2022/03/26 03:17:59;;;;;;;187.50;77.75;;;3.10;99.90;;;;;;5039537;28;20508;-86
2022/03/26 03:20:25;;;;;;;194.10;77.00;;;3.00;99.90;;;;;;5041922;28;20036;-86
2022/03/26 03:22:51;;;;;;;217.30;84.30;;;3.00;99.90;;;;;;5041934;28;20553;-86
2022/03/26 03:25:18;;;;;;;220.75;82.07;;;3.10;99.90;;;;;;5041618;28;20040;-86
2022/03/26 03:27:47;;;;;;;208.60;81.05;;;3.20;99.90;;;;;;5041355;28;20519;-86
2022/03/26 03:30:12;;;;;;;207.43;76.90;;;3.40;99.90;;;;;;5042530;28;20040;-87
2022/03/26 03:32:38;;;;;;;171.82;70.43;;;3.20;99.90;;;;;;5072431;28;20059;-87
2022/03/26 03:35:05;;;;;;;205.55;78.38;;;3.10;99.90;;;;;;5059131;28;20111;-86
2022/03/26 03:37:34;;;;;;;225.93;81.68;;;3.20;99.90;;;;;;5042192;28;20480;-85
2022/03/26 03:40:00;;;;;;;206.25;76.43;;;3.10;99.90;;;;;;5038324;28;20118;-86
2022/03/26 03:42:26;;;;;;;201.60;73.28;;;3.10;99.90;;;;;;5041203;28;20074;-86
2022/03/26 03:44:52;;;;;;;229.93;78.35;;;3.10;99.90;;;;;;5056652;28;20533;-85
2022/03/26 03:47:18;;;;;;;224.82;81.03;;;3.00;99.90;;;;;;5056688;28;20055;-86
2022/03/26 03:49:43;;;;;;;245.55;86.15;;;3.10;99.90;;;;;;5037990;28;20090;-86
2022/03/26 03:52:09;;;;;;;240.75;85.78;;;3.20;99.90;;;;;;5056993;28;20093;-85
2022/03/26 03:54:35;;;;;;;219.13;81.80;;;3.20;99.90;;;;;;5041496;28;20036;-86
2022/03/26 03:57:00;;;;;;;220.40;81.10;;;3.20;99.90;;;;;;5041081;28;20063;-86
2022/03/26 03:59:26;;;;;;;209.95;78.70;;;3.00;99.90;;;;;;5046166;28;20052;-86
2022/03/26 04:01:51;;;;;;;156.02;62.22;;;3.10;99.90;;;;;;5036081;28;20032;-86
2022/03/26 04:04:17;;;;;;;139.25;56.90;;;2.70;99.90;;;;;;5040124;28;20568;-86
2022/03/26 04:06:43;;;;;;;120.40;54.13;;;2.30;99.90;;;;;;5058408;28;20440;-86
2022/03/26 04:09:09;;;;;;;131.90;56.95;;;2.00;99.90;;;;;;5056033;28;20028;-87
2022/03/26 04:11:35;;;;;;;142.40;61.08;;;1.90;99.90;;;;;;5039581;28;20055;-85
2022/03/26 04:14:00;;;;;;;164.10;66.55;;;1.90;99.90;;;;;;5040828;28;20104;-86
2022/03/26 04:16:26;;;;;;;184.93;66.25;;;2.00;99.90;;;;;;5040572;28;20135;-86
2022/03/26 04:18:51;;;;;;;206.70;72.60;;;2.00;99.90;;;;;;5038637;28;20082;-85
2022/03/26 04:21:17;;;;;;;222.57;77.72;;;2.10;99.90;;;;;;5036243;28;20049;-86
2022/03/26 04:23:43;;;;;;;204.80;74.65;;;2.10;99.90;;;;;;5039558;28;20289;-86
2022/03/26 04:26:09;;;;;;;288.73;92.75;;;2.10;99.90;;;;;;5057076;28;20418;-86
2022/03/26 04:28:35;;;;;;;368.20;105.15;;;2.40;99.90;;;;;;5038209;28;20160;-87
2022/03/26 04:31:01;;;;;;;399.27;112.40;;;3.00;99.90;;;;;;5040292;28;20118;-86
2022/03/26 04:33:27;;;;;;;382.38;107.65;;;3.40;99.90;;;;;;5035111;28;20506;-86
2022/03/26 04:35:53;;;;;;;370.20;103.97;;;3.40;99.90;;;;;;5038861;28;20056;-86
2022/03/26 04:38:19;;;;;;;373.88;104.45;;;3.50;99.90;;;;;;5038894;28;20385;-85
2022/03/26 04:40:46;;;;;;;335.83;99.90;;;3.50;99.90;;;;;;5040275;28;20032;-86
2022/03/26 04:43:13;;;;;;;318.67;96.28;;;3.40;99.90;;;;;;5054703;28;20044;-86
2022/03/26 04:45:39;;;;;;;295.50;91.78;;;3.30;99.90;;;;;;5038788;28;20533;-86
2022/03/26 04:48:05;;;;;;;295.92;93.43;;;3.10;99.90;;;;;;5053829;28;20048;-86
2022/03/26 04:50:33;;;;;;;273.15;87.18;;;3.00;99.90;;;;;;5040166;28;20078;-88
2022/03/26 04:52:59;;;;;;;301.02;91.05;;;2.90;99.90;;;;;;5052351;28;20198;-86
2022/03/26 04:55:25;;;;;;;329.20;98.63;;;2.90;99.90;;;;;;5039567;28;20123;-87
2022/03/26 04:57:53;;;;;;;331.23;98.68;;;3.10;99.90;;;;;;5054003;28;20032;-86
2022/03/26 05:00:19;;;;;;;347.48;99.70;;;3.10;99.90;;;;;;5057295;28;20431;-86
2022/03/26 05:02:47;;;;;;;325.58;97.45;;;3.20;99.90;;;;;;5038005;28;20838;-86
2022/03/26 05:05:13;;;;;;;309.35;93.75;;;3.00;99.90;;;;;;5057443;28;20564;-85
2022/03/26 05:07:45;;;;;;;334.95;88.65;;;3.00;99.90;;;;;;5038888;28;20045;-87
2022/03/26 05:10:16;;;;;;;247.15;78.32;;;2.50;99.90;;;;;;5053824;28;20044;-87
2022/03/26 05:12:43;;;;;;;193.77;70.57;;;2.10;99.90;;;;;;5053807;28;20041;-86
2022/03/26 05:15:10;;;;;;;265.73;87.53;;;2.10;99.90;;;;;;5055348;28;20033;-87
2022/03/26 05:17:36;;;;;;;246.57;85.15;;;2.30;99.90;;;;;;5037038;28;20037;-87
2022/03/26 05:20:03;;;;;;;313.98;86.88;;;2.40;99.90;;;;;;5040174;28;20033;-86
2022/03/26 05:22:29;;;;;;;308.58;92.15;;;2.50;99.90;;;;;;5055341;28;20178;-87
2022/03/26 05:24:55;;;;;;;356.10;104.28;;;2.60;99.90;;;;;;5039857;28;20115;-88
2022/03/26 05:27:21;;;;;;;392.38;107.07;;;2.70;99.90;;;;;;5038526;28;20092;-87
2022/03/26 05:29:46;;;;;;;352.35;101.97;;;2.80;99.90;;;;;;5036244;28;20125;-85
2022/03/26 05:32:15;;;;;;;271.95;85.80;;;2.70;99.90;;;;;;5039785;28;20029;-85
2022/03/26 05:34:42;;;;;;;294.35;91.28;;;2.50;99.90;;;;;;5054050;28;20040;-87
2022/03/26 05:37:08;;;;;;;334.92;95.35;;;2.70;99.90;;;;;;5037665;28;20033;-86
2022/03/26 05:39:34;;;;;;;361.50;99.70;;;2.80;99.90;;;;;;5055039;28;20032;-86
2022/03/26 05:42:00;;;;;;;384.13;104.60;;;2.80;99.90;;;;;;5038850;28;20090;-85
2022/03/26 05:44:26;;;;;;;381.23;101.07;;;2.80;99.90;;;;;;5054013;28;20498;-86
2022/03/26 05:46:54;;;;;;;375.25;104.10;;;2.80;99.90;;;;;;5040230;28;20394;-86
2022/03/26 05:49:21;;;;;;;358.88;104.15;;;2.80;99.90;;;;;;5039762;28;20044;-86
2022/03/26 05:51:47;;;;;;;379.35;107.80;;;2.90;99.90;;;;;;5039510;28;20032;-87
2022/03/26 05:54:14;;;;;;;379.30;106.45;;;3.00;99.90;;;;;;5041434;28;20119;-85
2022/03/26 05:56:39;;;;;;;396.35;106.65;;;3.00;99.90;;;;;;5054522;28;20663;-86
2022/03/26 05:59:06;;;;;;;424.67;114.13;;;3.10;99.90;;;;;;5051887;28;20033;-86
2022/03/26 06:01:32;;;;;;;419.67;115.53;;;3.50;99.90;;;;;;5055832;28;20716;-86
2022/03/26 06:03:58;;;;;;;390.75;106.57;;;3.60;99.90;;;;;;5056150;28;20072;-86
2022/03/26 06:06:24;;;;;;;409.40;113.18;;;3.50;99.90;;;;;;5060433;28;20460;-85
2022/03/26 06:08:50;;;;;;;363.63;102.28;;;3.50;99.90;;;;;;5040153;28;20044;-85
2022/03/26 06:11:16;;;;;;;387.65;105.63;;;3.50;99.90;;;;;;5060156;28;20036;-85
2022/03/26 06:13:42;;;;;;;361.33;107.05;;;3.70;99.90;;;;;;5042090;28;20447;-86
2022/03/26 06:16:07;;;;;;;368.30;102.75;;;3.70;99.90;;;;;;5056581;28;20418;-87
2022/03/26 06:18:33;;;;;;;369.23;104.35;;;3.70;99.90;;;;;;5056032;28;20471;-85
2022/03/26 06:21:00;;;;;;;324.00;96.72;;;4.00;99.90;;;;;;5043723;28;20175;-87
2022/03/26 06:23:26;;;;;;;323.73;101.28;;;4.00;99.90;;;;;;5057463;28;20497;-86
2022/03/26 06:25:52;;;;;;;307.23;100.18;;;3.90;99.90;;;;;;5040800;28;20037;-87
2022/03/26 06:28:19;;;;;;;303.83;97.22;;;4.00;99.90;;;;;;5041458;28;20059;-87
2022/03/26 06:30:48;;;;;;;303.75;101.30;;;4.00;99.90;;;;;;5055627;28;20046;-86
2022/03/26 06:33:16;;;;;;;286.27;96.40;;;4.30;99.90;;;;;;5041820;28;20090;-86
2022/03/26 06:35:46;;;;;;;300.85;102.20;;;4.30;99.90;;;;;;5042195;28;20061;-85
2022/03/26 06:38:12;;;;;;;287.30;98.72;;;4.50;99.90;;;;;;5042398;28;20032;-85
2022/03/26 06:40:42;;;;;;;268.88;96.40;;;4.50;99.90;;;;;;5042096;28;20105;-86
2022/03/26 06:43:08;;;;;;;260.45;91.95;;;4.60;99.90;;;;;;5039845;28;20380;-87
2022/03/26 06:45:35;;;;;;;260.20;92.82;;;4.80;99.90;;;;;;5059670;28;20068;-86
2022/03/26 06:48:01;;;;;;;232.45;90.97;;;4.80;99.90;;;;;;5070926;28;20139;-86
2022/03/26 06:50:27;;;;;;;218.02;85.18;;;5.10;99.90;;;;;;5039278;28;20041;-86
2022/03/26 06:52:55;;;;;;;218.75;83.32;;;5.20;99.90;;;;;;5057327;28;20196;-85
2022/03/26 06:55:21;;;;;;;224.07;87.60;;;5.30;99.90;;;;;;5043193;28;20031;-86
2022/03/26 06:57:49;;;;;;;217.50;87.30;;;5.30;99.90;;;;;;5038829;28;20037;-86
2022/03/26 07:00:15;;;;;;;246.00;88.53;;;5.40;99.90;;;;;;5037301;28;20060;-85
2022/03/26 07:02:41;;;;;;;210.75;83.80;;;5.50;99.90;;;;;;5040881;28;20341;-85
2022/03/26 07:05:07;;;;;;;189.15;81.13;;;5.70;99.90;;;;;;5057506;28;20370;-86
2022/03/26 07:07:33;;;;;;;178.25;77.15;;;5.80;99.90;;;;;;5040694;28;20078;-86
2022/03/26 07:09:59;;;;;;;177.30;75.20;;;6.00;99.90;;;;;;5041980;28;20060;-86
2022/03/26 07:12:26;;;;;;;177.57;74.75;;;6.10;99.90;;;;;;5059049;28;20033;-86
2022/03/26 07:14:52;;;;;;;169.48;72.25;;;6.30;99.90;;;;;;5056497;28;20385;-87
2022/03/26 07:17:18;;;;;;;165.50;75.63;;;6.40;99.90;;;;;;5040689;28;20386;-86
2022/03/26 07:19:44;;;;;;;156.00;72.68;;;6.50;99.90;;;;;;5055923;28;20047;-87
2022/03/26 07:22:09;;;;;;;179.02;78.65;;;6.60;99.90;;;;;;5057621;28;20051;-86
2022/03/26 07:24:35;;;;;;;153.25;72.68;;;6.80;99.90;;;;;;5056361;28;20032;-86
2022/03/26 07:27:01;;;;;;;167.45;73.60;;;6.90;99.90;;;;;;5040919;28;20045;-86
2022/03/26 07:29:27;;;;;;;159.65;72.68;;;7.20;99.90;;;;;;5037479;28;20233;-86
2022/03/26 07:31:59;;;;;;;155.65;69.75;;;7.30;99.90;;;;;;5040719;28;20251;-86
2022/03/26 07:34:26;;;;;;;147.57;72.07;;;7.50;99.90;;;;;;5048045;28;20083;-87
2022/03/26 07:36:52;;;;;;;156.20;72.82;;;7.70;99.90;;;;;;5054307;28;20060;-86
2022/03/26 07:39:19;;;;;;;149.80;69.75;;;7.80;99.90;;;;;;5040285;28;20085;-87
2022/03/26 07:41:45;;;;;;;143.80;67.82;;;7.90;99.90;;;;;;5043382;28;20040;-87
2022/03/26 07:44:10;;;;;;;139.88;65.82;;;8.10;99.90;;;;;;5041012;28;20771;-87
2022/03/26 07:46:36;;;;;;;141.75;65.93;;;8.20;99.90;;;;;;5054059;28;20116;-86
2022/03/26 07:49:03;;;;;;;134.10;64.65;;;8.40;99.90;;;;;;5033980;28;20037;-86
2022/03/26 07:51:28;;;;;;;136.52;62.63;;;8.50;99.90;;;;;;5035649;28;20116;-87
2022/03/26 07:53:54;;;;;;;132.45;60.45;;;8.70;99.90;;;;;;5040942;28;20493;-87
2022/03/26 07:56:19;;;;;;;128.63;61.95;;;8.90;99.90;;;;;;5055425;28;20421;-87
2022/03/26 07:58:47;;;;;;;121.50;58.97;;;9.00;99.90;;;;;;5039473;28;20184;-87
2022/03/26 08:01:23;;;;;;;119.05;58.80;;;9.10;99.90;;;;;;5053240;28;20075;-85
2022/03/26 08:04:03;;;;;;;114.47;58.72;;;9.20;99.90;;;;;;5053642;28;20040;-86
2022/03/26 08:06:35;;;;;;;108.45;55.03;;;9.30;99.90;;;;;;5040385;28;20044;-85
2022/03/26 08:09:16;;;;;;;109.82;56.53;;;9.50;99.90;;;;;;5053116;28;20060;-86
2022/03/26 08:11:45;;;;;;;118.20;56.25;;;9.70;99.90;;;;;;5040043;28;20319;-86
2022/03/26 08:14:14;;;;;;;105.38;53.83;;;9.80;99.90;;;;;;5058385;28;20120;-86
2022/03/26 08:16:44;;;;;;;104.55;53.83;;;10.00;99.90;;;;;;5056945;28;20036;-85
2022/03/26 08:19:17;;;;;;;99.38;51.15;;;10.10;99.90;;;;;;5066588;28;20388;-86
2022/03/26 08:21:43;;;;;;;94.97;51.25;;;10.30;53.50;;;;;;5059536;28;20036;-86
2022/03/26 08:24:09;;;;;;;78.55;43.80;;;10.40;53.70;;;;;;5054562;28;20139;-85
2022/03/26 08:26:39;;;;;;;88.30;46.53;;;10.50;99.90;;;;;;5039648;28;20420;-87
2022/03/26 08:29:07;;;;;;;75.47;40.50;;;10.70;99.90;;;;;;5040579;28;20097;-87
2022/03/26 08:31:41;;;;;;;73.95;41.20;;;10.80;99.90;;;;;;5055567;28;20083;-87
2022/03/26 08:34:18;;;;;;;71.80;41.67;;;11.00;99.90;;;;;;5040038;28;20028;-87
2022/03/26 08:36:47;;;;;;;62.53;36.05;;;11.20;99.90;;;;;;5055617;28;20040;-86
2022/03/26 08:39:13;;;;;;;75.43;38.85;;;11.20;99.90;;;;;;5039814;28;20101;-86
2022/03/26 08:41:46;;;;;;;70.13;38.90;;;11.40;1.00;;;;;;5053616;28;20409;-86
2022/03/26 08:44:14;;;;;;;70.72;41.20;;;11.40;1.00;;;;;;5052685;28;20043;-85
2022/03/26 08:46:49;;;;;;;72.80;40.35;;;11.50;99.90;;;;;;5057991;28;20071;-85
2022/03/26 08:49:32;;;;;;;66.68;39.78;;;11.60;99.90;;;;;;5038187;28;20052;-86
2022/03/26 08:51:58;;;;;;;68.78;40.15;;;11.70;99.90;;;;;;5037920;28;20398;-86
2022/03/26 08:54:26;;;;;;;68.65;39.85;;;11.90;1.00;;;;;;5038661;28;20082;-86
2022/03/26 08:56:55;;;;;;;64.35;37.25;;;11.90;1.00;;;;;;5068285;28;20044;-86
2022/03/26 08:59:25;;;;;;;61.28;38.63;;;11.80;1.00;;;;;;5051873;28;20044;-86
2022/03/26 09:01:51;;;;;;;70.18;38.75;;;12.00;1.00;;;;;;5019006;28;20268;-86
2022/03/26 09:04:16;;;;;;;62.35;37.63;;;12.10;1.00;;;;;;5016923;28;20036;-86
2022/03/26 09:06:45;;;;;;;63.45;39.00;;;12.00;99.90;;;;;;5029817;28;20044;-87
2022/03/26 09:09:21;;;;;;;60.03;36.72;;;12.30;40.30;;;;;;5018320;28;20065;-87
2022/03/26 09:11:48;;;;;;;61.58;38.45;;;12.40;1.00;;;;;;5034748;28;20114;-86
2022/03/26 09:14:19;;;;;;;59.30;37.28;;;12.40;1.00;;;;;;5019418;28;20044;-87
2022/03/26 09:16:51;;;;;;;50.13;31.75;;;12.50;1.00;;;;;;5015680;28;20029;-86
2022/03/26 09:19:26;;;;;;;59.15;35.65;;;12.60;99.90;;;;;;5015908;28;20039;-85
2022/03/26 09:21:52;;;;;;;52.63;34.58;;;12.80;99.90;;;;;;5021505;28;20380;-86
2022/03/26 09:24:18;;;;;;;51.67;32.63;;;12.80;99.90;;;;;;5019550;28;20508;-87
2022/03/26 09:26:47;;;;;;;46.50;31.45;;;13.10;1.00;;;;;;5020305;28;20550;-86
2022/03/26 09:29:19;;;;;;;49.13;31.83;;;13.10;99.90;;;;;;5033629;28;20062;-87
2022/03/26 09:31:54;;;;;;;;;;;13.10;99.90;;;;;;5015576;28;20037;-86
2022/03/26 09:34:21;;;;;;;54.08;33.92;;;13.30;5.10;;;;;;5036127;28;19974;-87
2022/03/26 09:36:47;;;;;;;50.47;32.97;;;13.40;1.00;;;;;;5035433;28;20041;-86
2022/03/26 09:39:25;;;;;;;53.95;33.95;;;13.40;99.90;;;;;;5036418;28;20041;-86
2022/03/26 09:41:54;;;;;;;45.45;29.92;;;13.60;99.90;;;;;;5037924;28;20041;-87
2022/03/26 09:44:23;;;;;;;46.25;29.65;;;13.70;99.90;;;;;;5022182;28;20072;-87
2022/03/26 09:46:49;;;;;;;41.55;29.25;;;13.90;99.90;;;;;;5022784;28;20198;-86
2022/03/26 09:49:17;;;;;;;40.35;27.38;;;13.80;99.90;;;;;;5020481;28;20533;-88
2022/03/26 09:51:56;;;;;;;42.67;27.38;;;14.00;99.90;;;;;;5024704;28;20041;-87
2022/03/26 09:54:25;;;;;;;36.88;24.65;;;14.20;99.90;;;;;;5037236;28;20037;-88
2022/03/26 09:56:51;;;;;;;36.83;24.65;;;14.10;1.00;;;;;;5037365;28;20053;-87
2022/03/26 09:59:24;;;;;;;33.75;23.15;;;14.00;99.90;;;;;;5032722;28;20040;-87
2022/03/26 10:01:55;;;;;;;38.92;25.60;;;14.10;1.00;;;;;;5041485;28;20076;-87
2022/03/26 10:04:26;;;;;;;29.42;21.75;;;14.50;99.90;;;;;;5041401;28;20529;-87
2022/03/26 10:07:00;;;;;;;35.35;23.27;;;14.20;99.90;;;;;;5055146;28;20036;-87
2022/03/26 10:09:35;;;;;;;33.45;22.83;;;14.50;1.00;;;;;;5052638;28;20957;-87
2022/03/26 10:12:06;;;;;;;29.35;20.25;;;14.70;1.00;;;;;;5040512;28;20078;-87
2022/03/26 10:14:44;;;;;;;23.30;17.00;;;14.60;99.90;;;;;;5040110;28;20063;-88
2022/03/26 10:17:14;;;;;;;;;;;14.70;99.90;;;;;;5042815;28;20041;-87
2022/03/26 10:19:57;;;;;;;24.63;15.27;;;14.90;1.00;;;;;;5055034;28;20131;-88
2022/03/26 10:22:32;;;;;;;20.52;13.45;;;14.80;99.90;;;;;;5060354;28;20041;-87
2022/03/26 10:25:06;;;;;;;16.58;12.23;;;14.80;99.90;;;;;;5042349;28;20036;-87
2022/03/26 10:27:43;;;;;;;16.75;12.50;;;15.00;50.40;;;;;;5072899;28;20029;-86
2022/03/26 10:32:38;;;;;;;16.50;11.55;;;15.20;99.90;;;;;;5040337;28;20515;-87
2022/03/26 10:33:21;;;;;;;19.80;13.60;;;14.90;1.00;;;;;;5055268;28;20548;-88
2022/03/26 10:36:04;;;;;;;21.23;14.00;;;15.00;1.00;;;;;;5058530;28;20044;-89
2022/03/26 10:38:47;;;;;;;19.67;14.00;;;15.10;99.90;;;;;;5054077;28;20036;-88
2022/03/26 10:41:13;;;;;;;15.50;11.80;;;15.30;99.90;;;;;;5041345;28;20110;-87
2022/03/26 10:43:41;;;;;;;17.10;11.88;;;15.00;1.00;;;;;;5041593;28;20484;-87
2022/03/26 10:46:07;;;;;;;16.33;11.43;;;15.30;1.00;;;;;;5055976;28;20037;-88
2022/03/26 10:48:35;;;;;;;14.55;10.80;;;15.20;1.00;;;;;;5038342;28;20071;-88
2022/03/26 10:51:13;;;;;;;17.92;10.25;;;15.30;1.00;;;;;;5041891;28;20247;-87
2022/03/26 10:53:47;;;;;;;13.15;10.32;;;15.20;15.60;;;;;;5041743;28;20484;-88
2022/03/26 10:56:13;;;;;;;15.77;10.00;;;15.20;1.00;;;;;;5042433;28;20419;-88
2022/03/26 10:58:41;;;;;;;13.80;9.55;;;15.40;38.20;;;;;;5030401;28;20045;-87
2022/03/26 11:01:15;;;;;;;14.07;10.02;;;15.30;1.00;;;;;;5042564;28;21029;-87
2022/03/26 11:03:41;;;;;;;16.30;9.30;;;15.30;1.00;;;;;;5043009;28;20271;-87
2022/03/26 11:06:09;;;;;;;14.63;9.95;;;15.40;1.00;;;;;;5068701;28;20036;-89
2022/03/26 11:08:38;;;;;;;11.60;8.52;;;15.50;1.00;;;;;;5038386;28;20075;-88
2022/03/26 11:11:09;;;;;;;12.38;8.80;;;15.30;10.60;;;;;;5042969;28;20129;-88
2022/03/26 11:13:42;;;;;;;14.90;10.35;;;15.50;99.90;;;;;;5055816;28;20033;-87
2022/03/26 11:16:41;;;;;;;16.35;10.20;;;15.70;1.00;;;;;;5038107;28;20043;-88
2022/03/26 11:19:24;;;;;;;11.15;7.65;;;16.10;1.00;;;;;;5002741;28;20522;-89
2022/03/26 11:22:14;;;;;;;12.40;6.95;;;16.00;99.90;;;;;;5041054;28;20048;-88
2022/03/26 11:24:55;;;;;;;11.05;7.30;;;15.90;99.90;;;;;;5057315;28;20040;-87
2022/03/26 11:27:39;;;;;;;10.27;7.10;;;15.90;1.00;;;;;;5070277;28;20454;-86
2022/03/26 11:30:17;;;;;;;12.95;7.38;;;15.90;99.90;;;;;;5068565;28;20187;-87
2022/03/26 11:32:49;;;;;;;9.77;7.88;;;15.90;1.00;;;;;;5035888;28;20188;-88
2022/03/26 11:35:17;;;;;;;13.00;8.02;;;15.60;1.00;;;;;;5053225;28;20036;-87
2022/03/26 11:37:54;;;;;;;10.40;8.32;;;15.40;1.00;;;;;;5039373;28;20148;-87
2022/03/26 11:40:46;;;;;;;10.52;8.50;;;15.50;1.00;;;;;;5064360;28;20064;-88
2022/03/26 11:43:17;;;;;;;10.02;8.00;;;15.50;1.00;;;;;;5038344;28;20461;-86
2022/03/26 11:51:30;;;;;;;11.17;7.97;;;15.80;80.60;;;;;;5070929;28;20110;-89
2022/03/26 11:54:09;;;;;;;8.73;6.95;;;15.50;1.00;;;;;;5036667;28;20472;-88
2022/03/26 11:56:35;;;;;;;9.30;6.50;;;15.40;1.00;;;;;;5071480;28;20033;-87
2022/03/26 11:59:26;;;;;;;8.93;6.88;;;15.30;1.00;;;;;;5038436;28;20024;-87
2022/03/26 12:01:53;;;;;;;9.10;6.68;;;15.40;1.00;;;;;;5056864;28;20068;-89
2022/03/26 12:04:23;;;;;;;6.95;6.07;;;15.70;1.00;;;;;;5041669;28;20037;-87
2022/03/26 12:06:57;;;;;;;8.30;5.90;;;15.50;1.00;;;;;;5074129;28;20067;-88
2022/03/26 12:09:37;;;;;;;7.93;6.18;;;15.50;1.00;;;;;;5043980;28;20037;-89
2022/03/26 12:12:10;;;;;;;7.15;5.80;;;15.70;1.00;;;;;;5057766;28;20450;-88
2022/03/26 12:15:04;;;;;;;6.93;5.47;;;15.80;84.80;;;;;;5054343;28;20120;-88
2022/03/26 12:17:45;;;;;;;7.07;5.32;;;15.60;1.00;;;;;;5056604;28;20029;-90
2022/03/26 12:20:25;;;;;;;8.82;5.65;;;15.80;99.90;;;;;;5072129;28;20055;-88
2022/03/26 12:23:14;;;;;;;7.70;5.05;;;15.80;10.20;;;;;;5055631;28;20044;-88
2022/03/26 12:25:47;;;;;;;8.18;5.90;;;16.40;1.00;;;;;;5053109;28;20093;-88
2022/03/26 12:28:33;;;;;;;7.82;5.40;;;15.70;1.00;;;;;;5055931;28;20408;-89
2022/03/26 12:31:08;;;;;;;7.82;5.07;;;16.10;1.00;;;;;;5042619;28;20119;-86
2022/03/26 12:33:46;;;;;;;6.38;5.25;;;16.10;99.90;;;;;;5053396;28;20508;-86
2022/03/26 12:36:16;;;;;;;7.63;5.03;;;15.80;1.00;;;;;;5056594;28;20051;-86
2022/03/26 12:38:49;;;;;;;6.82;5.07;;;15.90;1.00;;;;;;5040928;28;20103;-84
2022/03/26 12:41:15;;;;;;;8.27;4.97;;;16.20;1.00;;;;;;5042332;28;20497;-84
2022/03/26 12:43:51;;;;;;;7.18;4.50;;;16.30;1.00;;;;;;5055866;28;20224;-84